createdAt,value
2022-10-22T00:01:00.171Z,100840.78
2022-10-22T00:03:26.665Z,100832.88
2022-10-22T00:05:53.208Z,100832.75
2022-10-22T00:08:19.850Z,100831.97
2022-10-22T00:10:46.287Z,100833.06
2022-10-22T00:13:13.197Z,100834.88
2022-10-22T00:15:39.718Z,100834.16
2022-10-22T00:18:06.241Z,100835.06
2022-10-22T00:20:32.649Z,100828.16
2022-10-22T00:22:59.095Z,100811.81
2022-10-22T00:25:25.526Z,100817.00
2022-10-22T00:27:51.937Z,100822.22
2022-10-22T00:30:18.547Z,100823.78
2022-10-22T00:32:45.378Z,100824.00
2022-10-22T00:35:11.865Z,100820.63
2022-10-22T00:37:38.410Z,100808.63
2022-10-22T00:40:05.657Z,100800.81
2022-10-22T00:42:32.110Z,100798.13
2022-10-22T00:45:04.733Z,100802.59
2022-10-22T00:47:54.393Z,100822.50
2022-10-22T00:50:35.413Z,100819.91
2022-10-22T00:53:04.290Z,100807.81
2022-10-22T00:55:32.621Z,100806.00
2022-10-22T00:58:01.464Z,100796.41
2022-10-22T01:00:28.642Z,100791.19
2022-10-22T01:02:55.575Z,100791.38
2022-10-22T01:05:22.742Z,100787.19
2022-10-22T01:07:52.279Z,100791.78
2022-10-22T01:11:04.247Z,100793.59
2022-10-22T01:13:54.686Z,100777.19
2022-10-22T01:16:38.684Z,100774.59
2022-10-22T01:19:05.026Z,100767.63
2022-10-22T01:21:40.146Z,100759.88
2022-10-22T01:24:18.894Z,100756.41
2022-10-22T01:27:00.735Z,100748.59
2022-10-22T01:29:32.865Z,100748.59
2022-10-22T01:32:10.255Z,100744.28
2022-10-22T01:34:40.427Z,100736.59
2022-10-22T01:37:08.148Z,100738.31
2022-10-22T01:39:36.804Z,100728.69
2022-10-22T01:42:03.411Z,100730.41
2022-10-22T01:44:33.028Z,100727.78
2022-10-22T01:47:11.347Z,100718.22
2022-10-22T01:50:04.065Z,100722.59
2022-10-22T01:52:57.017Z,100711.47
2022-10-22T01:55:37.585Z,100717.50
2022-10-22T01:58:07.060Z,100716.63
2022-10-22T02:00:38.643Z,100709.59
2022-10-22T02:03:21.347Z,100704.41
2022-10-22T02:05:56.671Z,100703.63
2022-10-22T02:08:30.940Z,100700.09
2022-10-22T02:10:59.718Z,100687.19
2022-10-22T02:13:31.442Z,100677.69
2022-10-22T02:15:58.765Z,100684.50
2022-10-22T02:18:36.298Z,100680.09
2022-10-22T02:23:33.371Z,100697.59
2022-10-22T02:26:31.380Z,100685.69
2022-10-22T02:29:12.271Z,100690.97
2022-10-22T02:31:42.377Z,100686.78
2022-10-22T02:34:14.655Z,100673.75
2022-10-22T02:36:46.724Z,100667.56
2022-10-22T02:41:48.611Z,100664.78
2022-10-22T02:44:15.134Z,100668.19
2022-10-22T02:46:43.524Z,100662.97
2022-10-22T02:49:09.969Z,100669.59
2022-10-22T02:51:36.411Z,100663.63
2022-10-22T02:54:02.861Z,100662.81
2022-10-22T02:56:29.315Z,100657.50
2022-10-22T02:58:55.865Z,100656.59
2022-10-22T03:01:22.639Z,100670.50
2022-10-22T03:03:49.254Z,100662.63
2022-10-22T03:06:15.756Z,100658.41
2022-10-22T03:08:42.387Z,100653.00
2022-10-22T03:11:09.113Z,100651.22
2022-10-22T03:13:35.606Z,100648.69
2022-10-22T03:16:02.407Z,100647.03
2022-10-22T03:18:28.859Z,100662.63
2022-10-22T03:21:28.032Z,100663.63
2022-10-22T03:23:55.121Z,100660.31
2022-10-22T03:26:22.025Z,100658.59
2022-10-22T03:28:48.693Z,100656.88
2022-10-22T03:31:15.309Z,100655.88
2022-10-22T03:33:41.737Z,100665.41
2022-10-22T03:36:09.264Z,100660.09
2022-10-22T03:38:39.260Z,100660.03
2022-10-22T03:41:06.268Z,100648.91
2022-10-22T03:43:35.341Z,100653.22
2022-10-22T03:46:01.796Z,100663.63
2022-10-22T03:48:28.243Z,100680.00
2022-10-22T03:50:54.741Z,100689.22
2022-10-22T03:53:21.288Z,100681.44
2022-10-22T03:55:47.765Z,100674.41
2022-10-22T03:58:14.260Z,100674.34
2022-10-22T04:00:40.809Z,100676.94
2022-10-22T04:03:07.211Z,100686.44
2022-10-22T04:05:34.105Z,100681.13
2022-10-22T04:08:00.633Z,100682.84
2022-10-22T04:10:27.015Z,100684.53
2022-10-22T04:12:53.421Z,100696.72
2022-10-22T04:15:19.866Z,100701.03
2022-10-22T04:17:46.330Z,100690.72
2022-10-22T04:20:12.783Z,100689.94
2022-10-22T04:22:39.310Z,100682.22
2022-10-22T04:25:06.179Z,100678.72
2022-10-22T04:27:33.833Z,100694.25
2022-10-22T04:30:00.353Z,100692.31
2022-10-22T04:32:28.089Z,100696.72
2022-10-22T04:34:54.512Z,100686.22
2022-10-22T04:37:21.971Z,100689.66
2022-10-22T04:39:48.378Z,100687.13
2022-10-22T04:42:14.764Z,100689.81
2022-10-22T04:44:41.235Z,100688.13
2022-10-22T04:47:07.637Z,100689.81
2022-10-22T04:49:34.077Z,100689.94
2022-10-22T04:52:00.513Z,100693.44
2022-10-22T04:54:29.118Z,100687.41
2022-10-22T04:56:59.313Z,100666.59
2022-10-22T04:59:25.899Z,100682.13
2022-10-22T05:01:52.369Z,100683.84
2022-10-22T05:04:19.686Z,100687.41
2022-10-22T05:06:46.201Z,100691.00
2022-10-22T05:09:16.523Z,100689.41
2022-10-22T05:11:48.809Z,100686.81
2022-10-22T05:14:21.628Z,100692.81
2022-10-22T05:16:49.459Z,100691.94
2022-10-22T05:19:20.824Z,100695.31
2022-10-22T05:21:47.576Z,100695.31
2022-10-22T05:24:14.055Z,100701.41
2022-10-22T05:26:40.562Z,100705.59
2022-10-22T05:29:07.044Z,100708.31
2022-10-22T05:31:33.611Z,100708.41
2022-10-22T05:34:00.056Z,100710.19
2022-10-22T05:36:26.750Z,100700.69
2022-10-22T05:38:53.552Z,100702.13
2022-10-22T05:41:22.820Z,100703.72
2022-10-22T05:43:50.011Z,100709.72
2022-10-22T05:46:22.557Z,100722.50
2022-10-22T05:48:54.852Z,100725.00
2022-10-22T05:51:21.798Z,100731.09
2022-10-22T05:53:53.214Z,100724.91
2022-10-22T05:56:19.920Z,100717.81
2022-10-22T05:58:46.939Z,100724.41
2022-10-22T06:01:17.069Z,100724.31
2022-10-22T06:03:44.481Z,100732.09
2022-10-22T06:06:44.392Z,100740.00
2022-10-22T06:09:13.762Z,100739.13
2022-10-22T06:11:40.496Z,100739.31
2022-10-22T06:14:07.004Z,100743.78
2022-10-22T06:16:33.464Z,100740.41
2022-10-22T06:19:03.190Z,100748.41
2022-10-22T06:21:30.839Z,100744.22
2022-10-22T06:23:58.671Z,100742.63
2022-10-22T06:26:25.282Z,100753.03
2022-10-22T06:28:51.803Z,100756.53
2022-10-22T06:31:18.380Z,100755.63
2022-10-22T06:33:44.876Z,100754.81
2022-10-22T06:36:14.164Z,100753.69
2022-10-22T06:38:40.816Z,100761.75
2022-10-22T06:41:12.884Z,100764.63
2022-10-22T06:43:39.920Z,100761.03
2022-10-22T06:46:09.790Z,100769.97
2022-10-22T06:48:37.935Z,100776.28
2022-10-22T06:51:06.930Z,100782.19
2022-10-22T06:53:34.017Z,100780.19
2022-10-22T06:56:07.459Z,100790.50
2022-10-22T06:58:33.922Z,100795.78
2022-10-22T07:01:05.671Z,100789.69
2022-10-22T07:03:32.301Z,100794.38
2022-10-22T07:06:00.693Z,100795.34
2022-10-22T07:08:27.208Z,100791.16
2022-10-22T07:10:53.672Z,100802.06
2022-10-22T07:13:20.160Z,100800.16
2022-10-22T07:15:51.585Z,100809.38
2022-10-22T07:18:18.041Z,100815.94
2022-10-22T07:20:44.414Z,100822.25
2022-10-22T07:23:10.845Z,100820.41
2022-10-22T07:25:37.245Z,100826.47
2022-10-22T07:28:03.789Z,100835.25
2022-10-22T07:30:30.224Z,100831.59
2022-10-22T07:32:56.641Z,100828.41
2022-10-22T07:35:23.058Z,100844.91
2022-10-22T07:37:49.502Z,100840.84
2022-10-22T07:40:16.079Z,100854.53
2022-10-22T07:42:42.485Z,100846.66
2022-10-22T07:46:08.176Z,100851.59
2022-10-22T07:48:36.126Z,100856.00
2022-10-22T07:51:03.104Z,100854.41
2022-10-22T07:53:29.872Z,100859.50
2022-10-22T07:55:56.801Z,100860.78
2022-10-22T07:58:23.803Z,100860.50
2022-10-22T08:00:51.518Z,100861.75
2022-10-22T08:03:18.463Z,100863.22
2022-10-22T08:05:45.752Z,100862.66
2022-10-22T08:08:13.791Z,100878.56
2022-10-22T08:10:40.659Z,100874.38
2022-10-22T08:13:07.451Z,100873.53
2022-10-22T08:15:34.753Z,100877.13
2022-10-22T08:18:01.232Z,100877.97
2022-10-22T08:20:27.713Z,100870.16
2022-10-22T08:22:54.160Z,100870.16
2022-10-22T08:25:20.760Z,100873.13
2022-10-22T08:27:47.333Z,100865.81
2022-10-22T08:30:14.423Z,100878.56
2022-10-22T08:32:41.608Z,100878.28
2022-10-22T08:35:08.149Z,100882.19
2022-10-22T08:37:34.771Z,100892.78
2022-10-22T08:40:01.219Z,100899.09
2022-10-22T08:43:01.714Z,100910.63
2022-10-22T08:45:37.253Z,100917.47
2022-10-22T08:48:25.386Z,100920.25
2022-10-22T08:50:56.008Z,100922.06
2022-10-22T08:53:30.278Z,100919.34
2022-10-22T08:55:57.864Z,100921.84
2022-10-22T08:58:41.309Z,100929.69
2022-10-22T09:01:14.350Z,100929.59
2022-10-22T09:03:58.760Z,100934.44
2022-10-22T09:06:27.601Z,100932.78
2022-10-22T09:08:56.549Z,100937.19
2022-10-22T09:11:25.847Z,100934.44
2022-10-22T09:13:54.894Z,100935.88
2022-10-22T09:16:43.827Z,100926.88
2022-10-22T09:19:35.735Z,100933.44
2022-10-22T09:22:50.946Z,100938.00
2022-10-22T09:25:26.863Z,100931.56
2022-10-22T09:27:58.182Z,100931.97
2022-10-22T09:30:28.414Z,100935.22
2022-10-22T09:33:01.716Z,100937.63
2022-10-22T09:35:28.654Z,100933.03
2022-10-22T09:37:57.293Z,100932.16
2022-10-22T09:40:24.048Z,100930.44
2022-10-22T09:42:50.474Z,100929.59
2022-10-22T09:45:23.078Z,100943.81
2022-10-22T09:48:01.639Z,100940.78
2022-10-22T09:50:49.690Z,100942.56
2022-10-22T09:53:25.172Z,100938.72
2022-10-22T09:58:27.141Z,100948.88
2022-10-22T10:00:59.157Z,100944.34
2022-10-22T10:03:29.178Z,100951.38
2022-10-22T10:06:01.562Z,100951.56
2022-10-22T10:08:31.470Z,100962.78
2022-10-22T10:11:10.667Z,100963.34
2022-10-22T10:14:07.824Z,100963.47
2022-10-22T10:16:59.129Z,100967.81
2022-10-22T10:19:40.780Z,100966.88
2022-10-22T10:22:19.327Z,100967.25
2022-10-22T10:25:07.021Z,100969.72
2022-10-22T10:28:10.720Z,100977.38
2022-10-22T10:30:48.778Z,100973.78
2022-10-22T10:33:30.185Z,100989.31
2022-10-22T10:36:02.460Z,100992.56
2022-10-22T10:38:42.432Z,100987.34
2022-10-22T10:41:45.329Z,100985.75
2022-10-22T10:44:14.603Z,100986.41
2022-10-22T10:47:17.698Z,100986.22
2022-10-22T10:49:44.691Z,100993.91
2022-10-22T10:52:25.545Z,100986.84
2022-10-22T10:54:51.881Z,100980.53
2022-10-22T10:57:22.288Z,100991.44
2022-10-22T10:59:51.694Z,100985.72
2022-10-22T11:02:40.080Z,100993.00
2022-10-22T11:05:42.930Z,101006.38
2022-10-22T11:08:18.051Z,101009.59
2022-10-22T11:10:48.715Z,101004.91
2022-10-22T11:13:26.916Z,100999.78
2022-10-22T11:16:04.709Z,101009.50
2022-10-22T11:18:40.334Z,101004.19
2022-10-22T11:21:18.722Z,100998.06
2022-10-22T11:23:50.528Z,101009.25
2022-10-22T11:26:43.049Z,101016.19
2022-10-22T11:29:15.609Z,101016.34
2022-10-22T11:31:44.251Z,101006.44
2022-10-22T11:34:36.812Z,101002.41
2022-10-22T11:37:05.509Z,101010.13
2022-10-22T11:39:39.191Z,101003.63
2022-10-22T11:42:10.720Z,101009.75
2022-10-22T11:45:28.605Z,101009.00
2022-10-22T11:48:06.016Z,101010.63
2022-10-22T11:50:41.549Z,101019.28
2022-10-22T11:53:14.109Z,101015.69
2022-10-22T11:55:47.967Z,101009.38
2022-10-22T11:58:29.896Z,101006.22
2022-10-22T12:01:09.645Z,100992.94
2022-10-22T12:03:43.763Z,100979.84
2022-10-22T12:06:12.833Z,100983.59
2022-10-22T12:08:47.047Z,100983.44
2022-10-22T12:11:33.754Z,100984.44
2022-10-22T12:14:03.216Z,100981.81
2022-10-22T12:16:55.234Z,100976.25
2022-10-22T12:19:22.364Z,100976.66
2022-10-22T12:21:57.437Z,100970.38
2022-10-22T12:24:26.092Z,100983.59
2022-10-22T12:26:52.829Z,100983.69
2022-10-22T12:29:23.694Z,100988.09
2022-10-22T12:31:50.239Z,100982.94
2022-10-22T12:34:24.178Z,100977.72
2022-10-22T12:36:52.956Z,100979.16
2022-10-22T12:39:22.761Z,100975.59
2022-10-22T12:41:49.349Z,100974.78
2022-10-22T12:44:17.816Z,100970.69
2022-10-22T12:46:46.738Z,100979.66
2022-10-22T12:49:21.272Z,100971.16
2022-10-22T12:51:49.176Z,100978.28
2022-10-22T12:54:36.483Z,100983.19
2022-10-22T12:57:03.126Z,100975.47
2022-10-22T12:59:35.910Z,100982.16
2022-10-22T13:02:12.261Z,100979.28
2022-10-22T13:04:38.670Z,100977.47
2022-10-22T13:07:17.016Z,100982.16
2022-10-22T13:09:58.171Z,100975.44
2022-10-22T13:12:35.159Z,100967.06
2022-10-22T13:15:34.535Z,100966.59
2022-10-22T13:18:22.236Z,100968.09
2022-10-22T13:21:03.558Z,100973.31
2022-10-22T13:23:32.115Z,100980.19
2022-10-22T13:26:13.878Z,100971.19
2022-10-22T13:28:41.231Z,100971.00
2022-10-22T13:31:27.798Z,100981.56
2022-10-22T13:33:57.681Z,100984.69
2022-10-22T13:36:24.832Z,100983.44
2022-10-22T13:38:51.287Z,100991.59
2022-10-22T13:41:23.860Z,100989.63
2022-10-22T13:43:50.992Z,100987.44
2022-10-22T13:46:18.246Z,100976.38
2022-10-22T13:48:46.930Z,100976.59
2022-10-22T13:51:19.784Z,100977.34
2022-10-22T13:53:47.892Z,100974.88
2022-10-22T13:56:22.847Z,100987.16
2022-10-22T13:58:49.779Z,100981.94
2022-10-22T14:01:28.113Z,100983.56
2022-10-22T14:03:58.041Z,100980.84
2022-10-22T14:06:28.704Z,100974.66
2022-10-22T14:09:05.033Z,100984.88
2022-10-22T14:11:32.651Z,100988.16
2022-10-22T14:13:59.290Z,100986.94
2022-10-22T14:16:31.287Z,100988.66
2022-10-22T14:18:58.485Z,100981.69
2022-10-22T14:21:25.388Z,100993.84
2022-10-22T14:23:54.052Z,100991.50
2022-10-22T14:26:32.758Z,100988.16
2022-10-22T14:29:15.674Z,100983.84
2022-10-22T14:31:44.379Z,100986.47
2022-10-22T14:34:13.595Z,100981.13
2022-10-22T14:36:40.252Z,100990.06
2022-10-22T14:39:06.804Z,100991.19
2022-10-22T14:41:33.665Z,100991.31
2022-10-22T14:44:00.130Z,101001.38
2022-10-22T14:46:26.709Z,100997.91
2022-10-22T14:48:53.129Z,100992.41
2022-10-22T14:51:21.229Z,100994.78
2022-10-22T14:53:48.996Z,100997.44
2022-10-22T14:56:18.877Z,100994.19
2022-10-22T14:58:45.752Z,100991.03
2022-10-22T15:01:12.604Z,100990.91
2022-10-22T15:03:39.335Z,100993.38
2022-10-22T15:06:06.094Z,100983.63
2022-10-22T15:08:33.064Z,100986.25
2022-10-22T15:11:00.796Z,100991.25
2022-10-22T15:13:28.783Z,100988.63
2022-10-22T15:15:56.304Z,100986.84
2022-10-22T15:18:23.408Z,100995.53
2022-10-22T15:21:01.609Z,100996.00
2022-10-22T15:23:28.618Z,100999.97
2022-10-22T15:25:55.458Z,101005.84
2022-10-22T15:28:22.066Z,100996.03
2022-10-22T15:30:56.897Z,101001.09
2022-10-22T15:33:23.933Z,101005.00
2022-10-22T15:35:50.780Z,101008.25
2022-10-22T15:38:17.844Z,101011.47
2022-10-22T15:40:44.349Z,101010.97
2022-10-22T15:43:10.957Z,101016.50
2022-10-22T15:45:37.407Z,101021.41
2022-10-22T15:48:04.393Z,101018.56
2022-10-22T15:50:30.828Z,101023.34
2022-10-22T15:52:57.385Z,101018.59
2022-10-22T15:55:23.943Z,101023.56
2022-10-22T15:57:54.802Z,101026.81
2022-10-22T16:00:22.042Z,101036.94
2022-10-22T16:02:48.535Z,101038.38
2022-10-22T16:05:14.995Z,101033.88
2022-10-22T16:07:41.745Z,101031.00
2022-10-22T16:10:09.341Z,101029.97
2022-10-22T16:12:36.025Z,101033.31
2022-10-22T16:15:02.517Z,101034.06
2022-10-22T16:17:29.493Z,101036.41
2022-10-22T16:19:56.119Z,101038.84
2022-10-22T16:22:22.526Z,101047.41
2022-10-22T16:24:48.921Z,101040.38
2022-10-22T16:27:15.345Z,101041.94
2022-10-22T16:29:41.958Z,101044.34
2022-10-22T16:32:08.381Z,101052.81
2022-10-22T16:34:34.826Z,101055.97
2022-10-22T16:37:01.381Z,101052.97
2022-10-22T16:39:27.776Z,101054.59
2022-10-22T16:41:54.241Z,101055.31
2022-10-22T16:44:20.647Z,101057.88
2022-10-22T16:46:47.266Z,101055.06
2022-10-22T16:49:13.712Z,101057.50
2022-10-22T16:51:40.170Z,101063.44
2022-10-22T16:54:09.728Z,101057.13
2022-10-22T16:56:38.831Z,101060.56
2022-10-22T16:59:06.392Z,101069.88
2022-10-22T17:01:36.720Z,101081.03
2022-10-22T17:04:06.097Z,101087.88
2022-10-22T17:06:32.546Z,101087.88
2022-10-22T17:08:59.039Z,101082.50
2022-10-22T17:11:25.692Z,101086.53
2022-10-22T17:13:54.211Z,101090.53
2022-10-22T17:16:23.302Z,101093.81
2022-10-22T17:18:49.879Z,101088.50
2022-10-22T17:21:17.082Z,101094.84
2022-10-22T17:23:43.658Z,101100.97
2022-10-22T17:26:20.333Z,101111.28
2022-10-22T17:28:47.789Z,101111.09
2022-10-22T17:31:21.488Z,101120.09
2022-10-22T17:33:49.837Z,101121.94
2022-10-22T17:36:18.274Z,101120.94
2022-10-22T17:38:48.799Z,101124.25
2022-10-22T17:41:18.164Z,101137.19
2022-10-22T17:46:23.784Z,101144.09
2022-10-22T17:49:04.226Z,101146.72
2022-10-22T17:51:31.623Z,101141.28
2022-10-22T17:53:58.501Z,101149.09
2022-10-22T17:56:27.978Z,101150.75
2022-10-22T17:58:55.441Z,101154.03
2022-10-22T18:01:30.832Z,101149.91
2022-10-22T18:04:17.658Z,101146.59
2022-10-22T18:06:46.687Z,101152.63
2022-10-22T18:09:18.383Z,101157.63
2022-10-22T18:11:46.642Z,101161.84
2022-10-22T18:14:13.105Z,101155.84
2022-10-22T18:16:39.636Z,101161.16
2022-10-22T18:19:06.180Z,101164.66
2022-10-22T18:21:32.634Z,101161.94
2022-10-22T18:23:59.577Z,101161.06
2022-10-22T18:26:27.050Z,101164.66
2022-10-22T18:28:54.198Z,101179.41
2022-10-22T18:31:23.025Z,101176.69
2022-10-22T18:33:49.899Z,101181.00
2022-10-22T18:36:19.844Z,101188.84
2022-10-22T18:38:51.232Z,101179.59
2022-10-22T18:41:18.455Z,101191.44
2022-10-22T18:43:49.201Z,101194.06
2022-10-22T18:46:15.596Z,101200.16
2022-10-22T18:48:42.017Z,101197.44
2022-10-22T18:51:09.515Z,101203.38
2022-10-22T18:53:37.264Z,101206.78
2022-10-22T18:56:09.158Z,101204.97
2022-10-22T18:58:40.070Z,101204.59
2022-10-22T19:01:07.604Z,101211.09
2022-10-22T19:03:34.140Z,101215.06
2022-10-22T19:06:00.601Z,101220.81
2022-10-22T19:08:27.276Z,101229.63
2022-10-22T19:10:53.702Z,101233.94
2022-10-22T19:13:23.096Z,101231.22
2022-10-22T19:15:49.802Z,101231.41
2022-10-22T19:18:16.301Z,101235.03
2022-10-22T19:20:44.318Z,101240.22
2022-10-22T19:23:10.724Z,101241.84
2022-10-22T19:25:37.195Z,101243.53
2022-10-22T19:28:03.848Z,101236.25
2022-10-22T19:30:30.326Z,101240.53
2022-10-22T19:32:56.865Z,101241.44
2022-10-22T19:35:23.311Z,101237.84
2022-10-22T19:37:49.771Z,101241.44
2022-10-22T19:40:16.276Z,101239.63
2022-10-22T19:42:44.370Z,101251.56
2022-10-22T19:45:11.224Z,101249.66
2022-10-22T19:47:37.637Z,101247.41
2022-10-22T19:50:04.349Z,101252.22
2022-10-22T19:52:30.772Z,101252.22
2022-10-22T19:54:57.201Z,101249.00
2022-10-22T19:57:23.681Z,101254.22
2022-10-22T19:59:50.845Z,101257.50
2022-10-22T20:02:18.793Z,101263.97
2022-10-22T20:04:49.205Z,101258.44
2022-10-22T20:07:16.905Z,101265.06
2022-10-22T20:09:43.409Z,101264.97
2022-10-22T20:12:09.818Z,101273.56
2022-10-22T20:14:37.381Z,101275.03
2022-10-22T20:17:03.925Z,101280.63
2022-10-22T20:19:30.411Z,101284.47
2022-10-22T20:21:56.877Z,101283.16
2022-10-22T20:24:23.378Z,101294.56
2022-10-22T20:26:49.812Z,101292.91
2022-10-22T20:29:18.923Z,101289.16
2022-10-22T20:31:45.871Z,101299.25
2022-10-22T20:34:12.454Z,101300.84
2022-10-22T20:36:39.248Z,101293.59
2022-10-22T20:39:08.997Z,101292.75
2022-10-22T20:41:37.739Z,101294.53
2022-10-22T20:44:04.445Z,101292.88
2022-10-22T20:46:32.099Z,101299.75
2022-10-22T20:49:11.683Z,101302.38
2022-10-22T20:51:38.353Z,101295.06
2022-10-22T20:54:06.412Z,101301.84
2022-10-22T20:56:33.610Z,101310.22
2022-10-22T20:59:08.124Z,101310.69
2022-10-22T21:01:40.853Z,101311.47
2022-10-22T21:04:07.818Z,101321.72
2022-10-22T21:06:37.915Z,101320.63
2022-10-22T21:09:12.345Z,101318.72
2022-10-22T21:11:40.477Z,101324.44
2022-10-22T21:14:09.277Z,101327.03
2022-10-22T21:16:35.915Z,101317.66
2022-10-22T21:19:02.518Z,101320.25
2022-10-22T21:21:28.917Z,101330.78
2022-10-22T21:23:55.358Z,101333.38
2022-10-22T21:26:22.921Z,101336.63
2022-10-22T21:28:49.461Z,101343.44
2022-10-22T21:31:21.971Z,101336.41
2022-10-22T21:33:49.900Z,101330.44
2022-10-22T21:36:20.257Z,101340.50
2022-10-22T21:38:49.464Z,101339.13
2022-10-22T21:41:18.806Z,101344.09
2022-10-22T21:43:46.051Z,101346.94
2022-10-22T21:46:18.850Z,101339.34
2022-10-22T21:48:45.983Z,101343.19
2022-10-22T21:51:15.905Z,101333.00
2022-10-22T21:53:42.541Z,101334.38
2022-10-22T21:56:15.276Z,101336.50
2022-10-22T21:58:42.336Z,101347.03
2022-10-22T22:01:08.796Z,101339.78
2022-10-22T22:03:35.285Z,101342.28
2022-10-22T22:06:06.372Z,101339.22
2022-10-22T22:08:33.319Z,101335.59
2022-10-22T22:11:17.630Z,101338.13
2022-10-22T22:13:44.450Z,101338.13
2022-10-22T22:16:14.670Z,101340.00
2022-10-22T22:18:41.965Z,101335.72
2022-10-22T22:21:11.246Z,101340.25
2022-10-22T22:23:40.296Z,101335.38
2022-10-22T22:26:07.669Z,101338.31
2022-10-22T22:28:34.597Z,101339.09
2022-10-22T22:31:01.269Z,101342.84
2022-10-22T22:33:28.475Z,101345.66
2022-10-22T22:35:59.442Z,101343.19
2022-10-22T22:38:25.886Z,101341.16
2022-10-22T22:40:52.305Z,101346.69
2022-10-22T22:43:18.786Z,101349.63
2022-10-22T22:45:45.203Z,101356.25
2022-10-22T22:48:11.612Z,101356.50
2022-10-22T22:50:38.013Z,101345.19
2022-10-22T22:53:04.482Z,101356.50
2022-10-22T22:55:31.957Z,101355.59
2022-10-22T22:57:58.787Z,101360.34
2022-10-22T23:00:25.498Z,101360.16
2022-10-22T23:02:55.770Z,101356.19
2022-10-22T23:05:22.450Z,101352.44
2022-10-22T23:07:48.958Z,101350.88
2022-10-22T23:10:15.523Z,101346.69
2022-10-22T23:12:42.297Z,101346.47
2022-10-22T23:15:09.359Z,101346.47
2022-10-22T23:20:07.662Z,101351.53
2022-10-22T23:22:34.076Z,101351.78
2022-10-22T23:25:00.537Z,101346.13
2022-10-22T23:27:26.945Z,101335.28
2022-10-22T23:29:53.414Z,101338.88
2022-10-22T23:32:19.812Z,101339.22
2022-10-22T23:34:46.295Z,101338.47
2022-10-22T23:37:12.735Z,101338.53
2022-10-22T23:39:39.217Z,101331.78
2022-10-22T23:42:05.728Z,101332.91
2022-10-22T23:44:32.156Z,101339.56
2022-10-22T23:46:58.592Z,101334.63
2022-10-22T23:49:25.045Z,101337.22
2022-10-22T23:51:51.554Z,101328.50
2022-10-22T23:54:20.802Z,101329.16
2022-10-22T23:56:47.292Z,101334.03
